sensor_id;sensor_type;location;lat;lon;timestamp;pressure;altitude;pressure_sealevel;temperature;humidity
56671;BME280;42545;50.054;8.306;2023-03-21T00:02:00;100211.00;;;7.57;92.61
56671;BME280;42545;50.054;8.306;2023-03-21T00:04:27;100202.16;;;7.53;92.94
56671;BME280;42545;50.054;8.306;2023-03-21T00:06:53;100206.34;;;7.48;92.90
56671;BME280;42545;50.054;8.306;2023-03-21T00:09:21;100204.59;;;7.47;92.97
56671;BME280;42545;50.054;8.306;2023-03-21T00:11:54;100207.16;;;7.45;93.46
56671;BME280;42545;50.054;8.306;2023-03-21T00:14:21;100202.75;;;7.44;93.55
56671;BME280;42545;50.054;8.306;2023-03-21T00:16:55;100203.59;;;7.43;93.91
56671;BME280;42545;50.054;8.306;2023-03-21T00:19:23;100201.75;;;7.41;94.11
56671;BME280;42545;50.054;8.306;2023-03-21T00:21:50;100193.06;;;7.42;94.24
56671;BME280;42545;50.054;8.306;2023-03-21T00:24:19;100189.38;;;7.37;94.53
56671;BME280;42545;50.054;8.306;2023-03-21T00:26:47;100185.13;;;7.40;94.93
56671;BME280;42545;50.054;8.306;2023-03-21T00:29:13;100195.56;;;7.39;94.72
56671;BME280;42545;50.054;8.306;2023-03-21T00:31:41;100193.00;;;7.40;95.44
56671;BME280;42545;50.054;8.306;2023-03-21T00:34:07;100195.69;;;7.42;95.95
56671;BME280;42545;50.054;8.306;2023-03-21T00:36:36;100184.28;;;7.41;95.50
56671;BME280;42545;50.054;8.306;2023-03-21T00:39:02;100185.06;;;7.39;95.45
56671;BME280;42545;50.054;8.306;2023-03-21T00:41:30;100179.00;;;7.40;96.24
56671;BME280;42545;50.054;8.306;2023-03-21T00:43:57;100175.50;;;7.41;96.16
56671;BME280;42545;50.054;8.306;2023-03-21T00:46:23;100186.00;;;7.41;96.32
56671;BME280;42545;50.054;8.306;2023-03-21T00:48:50;100177.31;;;7.42;96.22
56671;BME280;42545;50.054;8.306;2023-03-21T00:51:19;100176.44;;;7.43;96.58
56671;BME280;42545;50.054;8.306;2023-03-21T00:53:53;100166.81;;;7.42;96.95
56671;BME280;42545;50.054;8.306;2023-03-21T00:56:20;100169.53;;;7.45;97.15
56671;BME280;42545;50.054;8.306;2023-03-21T00:58:46;100162.44;;;7.42;97.36
56671;BME280;42545;50.054;8.306;2023-03-21T01:01:13;100166.03;;;7.46;97.30
56671;BME280;42545;50.054;8.306;2023-03-21T01:03:40;100165.09;;;7.44;97.67
56671;BME280;42545;50.054;8.306;2023-03-21T01:06:16;100166.91;;;7.45;97.42
56671;BME280;42545;50.054;8.306;2023-03-21T01:08:45;100163.31;;;7.43;97.45
56671;BME280;42545;50.054;8.306;2023-03-21T01:11:14;100162.31;;;7.38;97.57
56671;BME280;42545;50.054;8.306;2023-03-21T01:13:41;100163.25;;;7.40;97.57
56671;BME280;42545;50.054;8.306;2023-03-21T01:16:09;100168.38;;;7.37;97.82
56671;BME280;42545;50.054;8.306;2023-03-21T01:18:37;100158.59;;;7.31;97.90
56671;BME280;42545;50.054;8.306;2023-03-21T01:21:08;100161.28;;;7.32;98.17
56671;BME280;42545;50.054;8.306;2023-03-21T01:23:36;100160.34;;;7.30;98.17
56671;BME280;42545;50.054;8.306;2023-03-21T01:26:03;100157.66;;;7.29;98.36
56671;BME280;42545;50.054;8.306;2023-03-21T01:28:31;100159.28;;;7.25;98.40
56671;BME280;42545;50.054;8.306;2023-03-21T01:31:00;100147.84;;;7.23;98.46
56671;BME280;42545;50.054;8.306;2023-03-21T01:33:28;100152.94;;;7.19;97.91
56671;BME280;42545;50.054;8.306;2023-03-21T01:35:55;100150.97;;;7.11;98.24
56671;BME280;42545;50.054;8.306;2023-03-21T01:38:22;100150.69;;;7.02;98.06
56671;BME280;42545;50.054;8.306;2023-03-21T01:40:49;100148.75;;;6.97;98.50
56671;BME280;42545;50.054;8.306;2023-03-21T01:43:21;100151.19;;;6.90;98.42
56671;BME280;42545;50.054;8.306;2023-03-21T01:46:16;100152.72;;;6.84;98.95
56671;BME280;42545;50.054;8.306;2023-03-21T01:48:47;100142.91;;;6.78;99.43
56671;BME280;42545;50.054;8.306;2023-03-21T01:51:16;100147.09;;;6.73;99.85
56671;BME280;42545;50.054;8.306;2023-03-21T01:53:43;100137.31;;;6.67;99.95
56671;BME280;42545;50.054;8.306;2023-03-21T01:56:15;100135.38;;;6.62;99.76
56671;BME280;42545;50.054;8.306;2023-03-21T01:58:43;100137.94;;;6.60;99.98
56671;BME280;42545;50.054;8.306;2023-03-21T02:01:11;100128.13;;;6.54;99.95
56671;BME280;42545;50.054;8.306;2023-03-21T02:03:43;100129.75;;;6.51;100.00
56671;BME280;42545;50.054;8.306;2023-03-21T02:06:20;100123.41;;;6.44;100.00
56671;BME280;42545;50.054;8.306;2023-03-21T02:08:49;100124.22;;;6.42;100.00
56671;BME280;42545;50.054;8.306;2023-03-21T02:11:17;100123.22;;;6.38;100.00
56671;BME280;42545;50.054;8.306;2023-03-21T02:13:45;100122.28;;;6.36;100.00
56671;BME280;42545;50.054;8.306;2023-03-21T02:16:17;100125.72;;;6.35;100.00
56671;BME280;42545;50.054;8.306;2023-03-21T02:18:53;100118.72;;;6.34;100.00
56671;BME280;42545;50.054;8.306;2023-03-21T02:21:49;100116.88;;;6.31;100.00
56671;BME280;42545;50.054;8.306;2023-03-21T02:24:33;100111.47;;;6.27;100.00
56671;BME280;42545;50.054;8.306;2023-03-21T02:27:12;100107.03;;;6.24;100.00
56671;BME280;42545;50.054;8.306;2023-03-21T02:29:57;100105.13;;;6.20;100.00
56671;BME280;42545;50.054;8.306;2023-03-21T02:32:38;100105.94;;;6.18;100.00
56671;BME280;42545;50.054;8.306;2023-03-21T02:35:24;100106.69;;;6.15;100.00
56671;BME280;42545;50.054;8.306;2023-03-21T02:37:56;100105.75;;;6.13;100.00
56671;BME280;42545;50.054;8.306;2023-03-21T02:40:31;100103.13;;;6.13;100.00
56671;BME280;42545;50.054;8.306;2023-03-21T02:43:04;100103.13;;;6.13;100.00
56671;BME280;42545;50.054;8.306;2023-03-21T02:45:36;100103.94;;;6.10;100.00
56671;BME280;42545;50.054;8.306;2023-03-21T02:48:07;100110.91;;;6.10;100.00
56671;BME280;42545;50.054;8.306;2023-03-21T02:50:40;100101.19;;;6.07;100.00
56671;BME280;42545;50.054;8.306;2023-03-21T02:53:10;100103.94;;;6.10;100.00
56671;BME280;42545;50.054;8.306;2023-03-21T02:55:39;100102.25;;;6.12;100.00
56671;BME280;42545;50.054;8.306;2023-03-21T02:58:10;100103.19;;;6.14;100.00
56671;BME280;42545;50.054;8.306;2023-03-21T03:00:39;100107.53;;;6.14;100.00
56671;BME280;42545;50.054;8.306;2023-03-21T03:03:07;100101.44;;;6.15;100.00
56671;BME280;42545;50.054;8.306;2023-03-21T03:05:36;100105.19;;;6.22;100.00
56671;BME280;42545;50.054;8.306;2023-03-21T03:08:18;100098.25;;;6.24;100.00
56671;BME280;42545;50.054;8.306;2023-03-21T03:10:57;100095.75;;;6.27;100.00
56671;BME280;42545;50.054;8.306;2023-03-21T03:13:40;100091.47;;;6.29;100.00
56671;BME280;42545;50.054;8.306;2023-03-21T03:16:16;100092.41;;;6.31;100.00
56671;BME280;42545;50.054;8.306;2023-03-21T03:18:49;100088.03;;;6.31;100.00
56671;BME280;42545;50.054;8.306;2023-03-21T03:21:20;100087.16;;;6.31;100.00
56671;BME280;42545;50.054;8.306;2023-03-21T03:23:52;100087.22;;;6.32;100.00
56671;BME280;42545;50.054;8.306;2023-03-21T03:26:24;100089.00;;;6.33;100.00
56671;BME280;42545;50.054;8.306;2023-03-21T03:28:54;100087.28;;;6.34;100.00
56671;BME280;42545;50.054;8.306;2023-03-21T03:31:28;100081.16;;;6.35;100.00
56671;BME280;42545;50.054;8.306;2023-03-21T03:34:00;100074.22;;;6.35;100.00
56671;BME280;42545;50.054;8.306;2023-03-21T03:36:30;100076.03;;;6.38;100.00
56671;BME280;42545;50.054;8.306;2023-03-21T03:39:03;100069.97;;;6.39;100.00
56671;BME280;42545;50.054;8.306;2023-03-21T03:41:32;100080.53;;;6.41;100.00
56671;BME280;42545;50.054;8.306;2023-03-21T03:44:01;100080.53;;;6.41;100.00
56671;BME280;42545;50.054;8.306;2023-03-21T03:46:31;100070.97;;;6.43;100.00
56671;BME280;42545;50.054;8.306;2023-03-21T03:49:00;100072.72;;;6.44;100.00
56671;BME280;42545;50.054;8.306;2023-03-21T03:51:33;100072.84;;;6.47;100.00
56671;BME280;42545;50.054;8.306;2023-03-21T03:54:04;100072.03;;;6.49;100.00
56671;BME280;42545;50.054;8.306;2023-03-21T03:56:33;100071.16;;;6.49;100.00
56671;BME280;42545;50.054;8.306;2023-03-21T03:59:03;100071.22;;;6.50;100.00
56671;BME280;42545;50.054;8.306;2023-03-21T04:01:32;100071.22;;;6.50;100.00
56671;BME280;42545;50.054;8.306;2023-03-21T04:03:59;100062.47;;;6.50;100.00
56671;BME280;42545;50.054;8.306;2023-03-21T04:06:26;100065.97;;;6.50;100.00
56671;BME280;42545;50.054;8.306;2023-03-21T04:08:53;100071.16;;;6.49;100.00
56671;BME280;42545;50.054;8.306;2023-03-21T04:11:22;100064.97;;;6.47;100.00
56671;BME280;42545;50.054;8.306;2023-03-21T04:13:49;100068.34;;;6.43;100.00
56671;BME280;42545;50.054;8.306;2023-03-21T04:16:16;100076.94;;;6.39;100.00
56671;BME280;42545;50.054;8.306;2023-03-21T04:18:43;100078.53;;;6.33;100.00
56671;BME280;42545;50.054;8.306;2023-03-21T04:21:12;100073.13;;;6.29;100.00
56671;BME280;42545;50.054;8.306;2023-03-21T04:23:39;100069.38;;;6.22;100.00
56671;BME280;42545;50.054;8.306;2023-03-21T04:26:06;100074.59;;;6.21;100.00
56671;BME280;42545;50.054;8.306;2023-03-21T04:28:35;100077.94;;;6.16;100.00
56671;BME280;42545;50.054;8.306;2023-03-21T04:31:04;100079.66;;;6.16;100.00
56671;BME280;42545;50.054;8.306;2023-03-21T04:33:31;100077.88;;;6.15;100.00
56671;BME280;42545;50.054;8.306;2023-03-21T04:36:03;100080.50;;;6.15;100.00
56671;BME280;42545;50.054;8.306;2023-03-21T04:38:31;100077.94;;;6.16;100.00
56671;BME280;42545;50.054;8.306;2023-03-21T04:40:59;100073.59;;;6.17;100.00
56671;BME280;42545;50.054;8.306;2023-03-21T04:43:26;100083.28;;;6.20;100.00
56671;BME280;42545;50.054;8.306;2023-03-21T04:45:55;100078.16;;;6.23;100.00
56671;BME280;42545;50.054;8.306;2023-03-21T04:48:22;100079.91;;;6.24;100.00
56671;BME280;42545;50.054;8.306;2023-03-21T04:50:50;100072.06;;;6.24;100.00
56671;BME280;42545;50.054;8.306;2023-03-21T04:53:16;100073.06;;;6.27;100.00
56671;BME280;42545;50.054;8.306;2023-03-21T04:55:43;100065.25;;;6.29;100.00
56671;BME280;42545;50.054;8.306;2023-03-21T04:58:10;100069.69;;;6.31;100.00
56671;BME280;42545;50.054;8.306;2023-03-21T05:00:37;100062.81;;;6.33;100.00
56671;BME280;42545;50.054;8.306;2023-03-21T05:03:06;100069.91;;;6.38;100.00
56671;BME280;42545;50.054;8.306;2023-03-21T05:05:34;100063.00;;;6.40;100.00
56671;BME280;42545;50.054;8.306;2023-03-21T05:08:01;100057.75;;;6.40;100.00
56671;BME280;42545;50.054;8.306;2023-03-21T05:10:28;100062.19;;;6.42;100.00
56671;BME280;42545;50.054;8.306;2023-03-21T05:12:55;100057.88;;;6.44;100.00
56671;BME280;42545;50.054;8.306;2023-03-21T05:15:22;100057.88;;;6.43;100.00
56671;BME280;42545;50.054;8.306;2023-03-21T05:17:48;100052.56;;;6.41;100.00
56671;BME280;42545;50.054;8.306;2023-03-21T05:20:16;100068.44;;;6.46;100.00
56671;BME280;42545;50.054;8.306;2023-03-21T05:22:44;100071.03;;;6.46;100.00
56671;BME280;42545;50.054;8.306;2023-03-21T05:25:14;100065.03;;;6.48;100.00
56671;BME280;42545;50.054;8.306;2023-03-21T05:27:42;100065.91;;;6.49;100.00
56671;BME280;42545;50.054;8.306;2023-03-21T05:30:16;100058.94;;;6.49;100.00
56671;BME280;42545;50.054;8.306;2023-03-21T05:32:43;100054.59;;;6.50;100.00
56671;BME280;42545;50.054;8.306;2023-03-21T05:35:11;100048.31;;;6.45;100.00
56671;BME280;42545;50.054;8.306;2023-03-21T05:37:39;100047.50;;;6.47;100.00
56671;BME280;42545;50.054;8.306;2023-03-21T05:40:07;100046.56;;;6.45;100.00
56671;BME280;42545;50.054;8.306;2023-03-21T05:42:34;100045.78;;;6.48;100.00
56671;BME280;42545;50.054;8.306;2023-03-21T05:45:01;100051.94;;;6.48;100.00
56671;BME280;42545;50.054;8.306;2023-03-21T05:47:28;100053.91;;;6.56;100.00
56671;BME280;42545;50.054;8.306;2023-03-21T05:49:55;100058.50;;;6.63;100.00
56671;BME280;42545;50.054;8.306;2023-03-21T05:52:22;100061.22;;;6.66;100.00
56671;BME280;42545;50.054;8.306;2023-03-21T05:54:50;100062.25;;;6.71;100.00
56671;BME280;42545;50.054;8.306;2023-03-21T05:57:17;100058.88;;;6.73;100.00
56671;BME280;42545;50.054;8.306;2023-03-21T05:59:44;100064.28;;;6.80;100.00
56671;BME280;42545;50.054;8.306;2023-03-21T06:02:10;100057.41;;;6.83;100.00
56671;BME280;42545;50.054;8.306;2023-03-21T06:04:37;100053.94;;;6.84;100.00
56671;BME280;42545;50.054;8.306;2023-03-21T06:07:04;100049.59;;;6.85;100.00
56671;BME280;42545;50.054;8.306;2023-03-21T06:09:30;100052.41;;;6.91;100.00
56671;BME280;42545;50.054;8.306;2023-03-21T06:11:59;100053.44;;;6.96;100.00
56671;BME280;42545;50.054;8.306;2023-03-21T06:14:26;100055.25;;;6.99;100.00
56671;BME280;42545;50.054;8.306;2023-03-21T06:16:54;100049.94;;;6.97;100.00
56671;BME280;42545;50.054;8.306;2023-03-21T06:19:21;100056.19;;;7.01;100.00
56671;BME280;42545;50.054;8.306;2023-03-21T06:21:47;100052.72;;;7.02;100.00
56671;BME280;42545;50.054;8.306;2023-03-21T06:24:15;100057.16;;;7.04;100.00
56671;BME280;42545;50.054;8.306;2023-03-21T06:26:42;100051.19;;;7.08;100.00
56671;BME280;42545;50.054;8.306;2023-03-21T06:29:10;100058.31;;;7.12;100.00
56671;BME280;42545;50.054;8.306;2023-03-21T06:31:37;100046.16;;;7.16;100.00
56671;BME280;42545;50.054;8.306;2023-03-21T06:34:03;100052.50;;;7.23;100.00
56671;BME280;42545;50.054;8.306;2023-03-21T06:36:31;100047.41;;;7.29;100.00
56671;BME280;42545;50.054;8.306;2023-03-21T06:38:57;100048.53;;;7.37;100.00
56671;BME280;42545;50.054;8.306;2023-03-21T06:41:24;100056.72;;;7.48;100.00
56671;BME280;42545;50.054;8.306;2023-03-21T06:43:51;100054.34;;;7.57;99.96
56671;BME280;42545;50.054;8.306;2023-03-21T06:46:19;100051.16;;;7.67;99.86
56671;BME280;42545;50.054;8.306;2023-03-21T06:48:46;100055.56;;;7.70;97.97
56671;BME280;42545;50.054;8.306;2023-03-21T06:51:14;100061.06;;;7.78;97.18
56671;BME280;42545;50.054;8.306;2023-03-21T06:53:40;100058.50;;;7.81;97.17
56671;BME280;42545;50.054;8.306;2023-03-21T06:56:09;100062.09;;;7.84;96.54
56671;BME280;42545;50.054;8.306;2023-03-21T06:58:36;100049.91;;;7.86;96.61
56671;BME280;42545;50.054;8.306;2023-03-21T07:01:04;100063.28;;;7.96;96.54
56671;BME280;42545;50.054;8.306;2023-03-21T07:03:32;100056.41;;;8.01;96.42
56671;BME280;42545;50.054;8.306;2023-03-21T07:06:05;100054.81;;;8.06;96.24
56671;BME280;42545;50.054;8.306;2023-03-21T07:08:32;100054.16;;;8.15;96.36
56671;BME280;42545;50.054;8.306;2023-03-21T07:10:59;100070.16;;;8.24;96.31
56671;BME280;42545;50.054;8.306;2023-03-21T07:13:26;100063.31;;;8.29;95.78
56671;BME280;42545;50.054;8.306;2023-03-21T07:15:53;100067.03;;;8.39;96.11
56671;BME280;42545;50.054;8.306;2023-03-21T07:18:20;100075.97;;;8.44;95.30
56671;BME280;42545;50.054;8.306;2023-03-21T07:20:49;100072.59;;;8.50;94.68
56671;BME280;42545;50.054;8.306;2023-03-21T07:23:17;100078.00;;;8.54;94.09
56671;BME280;42545;50.054;8.306;2023-03-21T07:25:43;100079.88;;;8.60;93.76
56671;BME280;42545;50.054;8.306;2023-03-21T07:28:10;100077.44;;;8.68;94.20
56671;BME280;42545;50.054;8.306;2023-03-21T07:30:37;100070.50;;;8.71;93.66
56671;BME280;42545;50.054;8.306;2023-03-21T07:33:05;100077.75;;;8.80;93.44
56671;BME280;42545;50.054;8.306;2023-03-21T07:35:32;100071.69;;;8.84;91.98
56671;BME280;42545;50.054;8.306;2023-03-21T07:38:02;100071.81;;;8.90;91.30
56671;BME280;42545;50.054;8.306;2023-03-21T07:40:29;100069.34;;;8.96;90.15
56671;BME280;42545;50.054;8.306;2023-03-21T07:42:56;100075.66;;;9.04;89.65
56671;BME280;42545;50.054;8.306;2023-03-21T07:45:23;100074.91;;;9.10;89.04
56671;BME280;42545;50.054;8.306;2023-03-21T07:47:52;100079.38;;;9.14;87.76
56671;BME280;42545;50.054;8.306;2023-03-21T07:50:19;100076.03;;;9.21;87.05
56671;BME280;42545;50.054;8.306;2023-03-21T07:52:46;100074.47;;;9.30;86.84
56671;BME280;42545;50.054;8.306;2023-03-21T07:55:14;100069.41;;;9.39;86.38
56671;BME280;42545;50.054;8.306;2023-03-21T07:57:42;100063.41;;;9.46;86.83
56671;BME280;42545;50.054;8.306;2023-03-21T08:00:10;100073.03;;;9.44;82.97
56671;BME280;42545;50.054;8.306;2023-03-21T08:02:36;100072.16;;;9.45;82.55
56671;BME280;42545;50.054;8.306;2023-03-21T08:05:03;100072.19;;;9.47;82.63
56671;BME280;42545;50.054;8.306;2023-03-21T08:07:30;100073.16;;;9.50;82.08
56671;BME280;42545;50.054;8.306;2023-03-21T08:09:57;100060.72;;;9.43;81.37
56671;BME280;42545;50.054;8.306;2023-03-21T08:12:25;100066.25;;;9.55;81.64
56671;BME280;42545;50.054;8.306;2023-03-21T08:14:52;100065.47;;;9.61;81.65
56671;BME280;42545;50.054;8.306;2023-03-21T08:17:18;100060.38;;;9.70;81.38
56671;BME280;42545;50.054;8.306;2023-03-21T08:19:45;100064.97;;;9.79;80.62
56671;BME280;42545;50.054;8.306;2023-03-21T08:22:12;100067.66;;;9.82;79.11
56671;BME280;42545;50.054;8.306;2023-03-21T08:24:38;100068.75;;;9.93;80.77
56671;BME280;42545;50.054;8.306;2023-03-21T08:27:05;100067.91;;;9.96;78.47
56671;BME280;42545;50.054;8.306;2023-03-21T08:29:33;100068.97;;;10.04;80.86
56671;BME280;42545;50.054;8.306;2023-03-21T08:32:04;100069.81;;;10.03;77.40
56671;BME280;42545;50.054;8.306;2023-03-21T08:34:31;100060.28;;;10.10;79.31
56671;BME280;42545;50.054;8.306;2023-03-21T08:36:59;100070.94;;;10.17;78.77
56671;BME280;42545;50.054;8.306;2023-03-21T08:39:26;100065.84;;;10.27;78.96
56671;BME280;42545;50.054;8.306;2023-03-21T08:41:52;100072.06;;;10.30;78.15
56671;BME280;42545;50.054;8.306;2023-03-21T08:44:19;100068.50;;;10.28;77.51
56671;BME280;42545;50.054;8.306;2023-03-21T08:46:47;100064.09;;;10.27;76.78
56671;BME280;42545;50.054;8.306;2023-03-21T08:49:14;100065.91;;;10.30;77.09
56671;BME280;42545;50.054;8.306;2023-03-21T08:51:41;100072.91;;;10.28;76.27
56671;BME280;42545;50.054;8.306;2023-03-21T08:54:17;100073.78;;;10.28;76.74
56671;BME280;42545;50.054;8.306;2023-03-21T08:56:44;100071.06;;;10.25;76.50
56671;BME280;42545;50.054;8.306;2023-03-21T08:59:11;100069.31;;;10.26;76.65
56671;BME280;42545;50.054;8.306;2023-03-21T09:01:38;100062.34;;;10.29;77.56
56671;BME280;42545;50.054;8.306;2023-03-21T09:04:07;100073.09;;;10.37;77.51
56671;BME280;42545;50.054;8.306;2023-03-21T09:06:35;100072.31;;;10.43;77.90
56671;BME280;42545;50.054;8.306;2023-03-21T09:09:02;100071.44;;;10.44;77.87
56671;BME280;42545;50.054;8.306;2023-03-21T09:11:32;100075.97;;;10.52;78.28
56671;BME280;42545;50.054;8.306;2023-03-21T09:13:59;100076.06;;;10.58;78.54
56671;BME280;42545;50.054;8.306;2023-03-21T09:16:26;100070.00;;;10.63;78.27
56671;BME280;42545;50.054;8.306;2023-03-21T09:18:53;100070.81;;;10.60;77.35
56671;BME280;42545;50.054;8.306;2023-03-21T09:21:26;100071.75;;;10.61;77.40
56671;BME280;42545;50.054;8.306;2023-03-21T09:23:53;100064.69;;;10.61;77.38
56671;BME280;42545;50.054;8.306;2023-03-21T09:26:23;100067.38;;;10.63;77.61
56671;BME280;42545;50.054;8.306;2023-03-21T09:28:52;100071.88;;;10.70;78.56
56671;BME280;42545;50.054;8.306;2023-03-21T09:31:20;100068.47;;;10.77;78.23
56671;BME280;42545;50.054;8.306;2023-03-21T09:33:47;100068.56;;;10.83;77.71
56671;BME280;42545;50.054;8.306;2023-03-21T09:36:15;100074.81;;;10.88;78.17
56671;BME280;42545;50.054;8.306;2023-03-21T09:38:46;100077.56;;;10.96;77.89
56671;BME280;42545;50.054;8.306;2023-03-21T09:41:22;100076.81;;;11.05;76.62
56671;BME280;42545;50.054;8.306;2023-03-21T09:44:03;100059.28;;;11.11;77.37
56671;BME280;42545;50.054;8.306;2023-03-21T09:46:38;100069.97;;;11.21;77.36
56671;BME280;42545;50.054;8.306;2023-03-21T09:49:12;100074.47;;;11.25;77.09
56671;BME280;42545;50.054;8.306;2023-03-21T09:51:44;100075.34;;;11.25;75.31
56671;BME280;42545;50.054;8.306;2023-03-21T09:54:21;100070.81;;;11.16;74.67
56671;BME280;42545;50.054;8.306;2023-03-21T09:56:52;100072.59;;;11.18;76.54
56671;BME280;42545;50.054;8.306;2023-03-21T09:59:24;100071.72;;;11.17;76.88
56671;BME280;42545;50.054;8.306;2023-03-21T10:01:53;100069.91;;;11.14;76.43
56671;BME280;42545;50.054;8.306;2023-03-21T10:04:21;100069.84;;;11.11;76.69
56671;BME280;42545;50.054;8.306;2023-03-21T10:06:54;100072.41;;;11.05;75.91
56671;BME280;42545;50.054;8.306;2023-03-21T10:09:24;100072.31;;;10.98;76.50
56671;BME280;42545;50.054;8.306;2023-03-21T10:11:55;100066.94;;;10.93;77.28
56671;BME280;42545;50.054;8.306;2023-03-21T10:14:27;100072.13;;;10.87;78.21
56671;BME280;42545;50.054;8.306;2023-03-21T10:16:57;100067.63;;;10.80;79.07
56671;BME280;42545;50.054;8.306;2023-03-21T10:19:26;100066.59;;;10.70;79.91
56671;BME280;42545;50.054;8.306;2023-03-21T10:21:53;100064.75;;;10.64;81.24
56671;BME280;42545;50.054;8.306;2023-03-21T10:24:24;100064.66;;;10.60;82.04
56671;BME280;42545;50.054;8.306;2023-03-21T10:26:51;100064.59;;;10.53;82.41
56671;BME280;42545;50.054;8.306;2023-03-21T10:29:21;100064.53;;;10.50;82.93
56671;BME280;42545;50.054;8.306;2023-03-21T10:31:50;100062.72;;;10.49;83.57
56671;BME280;42545;50.054;8.306;2023-03-21T10:34:30;100058.38;;;10.50;84.42
56671;BME280;42545;50.054;8.306;2023-03-21T10:37:00;100066.31;;;10.51;85.45
56671;BME280;42545;50.054;8.306;2023-03-21T10:39:33;100069.84;;;10.53;85.77
56671;BME280;42545;50.054;8.306;2023-03-21T10:42:01;100070.66;;;10.49;85.93
56671;BME280;42545;50.054;8.306;2023-03-21T10:44:30;100068.81;;;10.45;85.92
56671;BME280;42545;50.054;8.306;2023-03-21T10:46:58;100066.16;;;10.44;86.62
56671;BME280;42545;50.054;8.306;2023-03-21T10:49:29;100069.63;;;10.41;86.83
56671;BME280;42545;50.054;8.306;2023-03-21T10:51:57;100074.81;;;10.35;87.11
56671;BME280;42545;50.054;8.306;2023-03-21T10:54:28;100070.41;;;10.34;88.10
56671;BME280;42545;50.054;8.306;2023-03-21T10:57:00;100072.13;;;10.32;88.86
56671;BME280;42545;50.054;8.306;2023-03-21T10:59:35;100071.94;;;10.23;88.52
56671;BME280;42545;50.054;8.306;2023-03-21T11:02:04;100068.97;;;10.04;87.84
56671;BME280;42545;50.054;8.306;2023-03-21T11:04:31;100073.94;;;9.90;88.30
56671;BME280;42545;50.054;8.306;2023-03-21T11:07:01;100075.59;;;9.85;89.53
56671;BME280;42545;50.054;8.306;2023-03-21T11:09:43;100075.44;;;9.76;89.79
56671;BME280;42545;50.054;8.306;2023-03-21T11:12:14;100073.56;;;9.70;90.79
56671;BME280;42545;50.054;8.306;2023-03-21T11:14:42;100065.66;;;9.70;91.62
56671;BME280;42545;50.054;8.306;2023-03-21T11:17:21;100068.38;;;9.73;92.91
56671;BME280;42545;50.054;8.306;2023-03-21T11:19:50;100066.63;;;9.75;93.81
56671;BME280;42545;50.054;8.306;2023-03-21T11:22:19;100063.91;;;9.69;94.04
56671;BME280;42545;50.054;8.306;2023-03-21T11:24:49;100059.69;;;9.79;94.69
56671;BME280;42545;50.054;8.306;2023-03-21T11:27:18;100063.19;;;9.79;95.36
56671;BME280;42545;50.054;8.306;2023-03-21T11:29:48;100066.72;;;9.80;95.08
56671;BME280;42545;50.054;8.306;2023-03-21T11:32:20;100058.03;;;9.84;96.00
56671;BME280;42545;50.054;8.306;2023-03-21T11:34:49;100052.00;;;9.90;96.71
56671;BME280;42545;50.054;8.306;2023-03-21T11:37:20;100052.91;;;9.92;96.81
56671;BME280;42545;50.054;8.306;2023-03-21T11:39:55;100046.75;;;9.93;96.56
56671;BME280;42545;50.054;8.306;2023-03-21T11:42:27;100037.94;;;9.91;96.33
56671;BME280;42545;50.054;8.306;2023-03-21T11:45:00;100039.78;;;9.95;96.63
56671;BME280;42545;50.054;8.306;2023-03-21T11:47:28;100030.16;;;9.97;96.71
56671;BME280;42545;50.054;8.306;2023-03-21T11:49:55;100021.41;;;9.99;97.12
56671;BME280;42545;50.054;8.306;2023-03-21T11:52:31;100020.59;;;10.04;96.97
56671;BME280;42545;50.054;8.306;2023-03-21T11:55:31;100017.22;;;10.11;97.10
56671;BME280;42545;50.054;8.306;2023-03-21T11:58:13;100021.59;;;10.10;96.06
56671;BME280;42545;50.054;8.306;2023-03-21T12:00:47;100018.13;;;10.13;96.13
56671;BME280;42545;50.054;8.306;2023-03-21T12:03:45;100016.38;;;10.12;95.59
56671;BME280;42545;50.054;8.306;2023-03-21T12:06:18;100004.03;;;10.11;94.67
56671;BME280;42545;50.054;8.306;2023-03-21T12:08:57;100010.19;;;10.10;95.09
56671;BME280;42545;50.054;8.306;2023-03-21T12:11:33;100003.13;;;10.09;94.69
56671;BME280;42545;50.054;8.306;2023-03-21T12:14:11;100008.41;;;10.10;94.72
56671;BME280;42545;50.054;8.306;2023-03-21T12:16:51;100003.25;;;10.15;94.97
56671;BME280;42545;50.054;8.306;2023-03-21T12:19:36;100005.00;;;10.16;93.96
56671;BME280;42545;50.054;8.306;2023-03-21T12:22:16;100000.53;;;10.12;93.31
56671;BME280;42545;50.054;8.306;2023-03-21T12:24:50;100005.81;;;10.12;93.74
56671;BME280;42545;50.054;8.306;2023-03-21T12:27:26;99991.75;;;10.11;93.76
56671;BME280;42545;50.054;8.306;2023-03-21T12:30:09;99989.94;;;10.09;93.51
56671;BME280;42545;50.054;8.306;2023-03-21T12:32:51;99994.38;;;10.11;94.59
56671;BME280;42545;50.054;8.306;2023-03-21T12:35:31;99990.81;;;10.09;94.78
56671;BME280;42545;50.054;8.306;2023-03-21T12:38:13;99974.97;;;10.06;95.14
56671;BME280;42545;50.054;8.306;2023-03-21T12:40:50;99975.84;;;10.07;95.53
56671;BME280;42545;50.054;8.306;2023-03-21T12:43:27;99967.09;;;10.09;95.92
56671;BME280;42545;50.054;8.306;2023-03-21T12:45:59;99968.91;;;10.12;96.05
56671;BME280;42545;50.054;8.306;2023-03-21T12:48:32;99958.38;;;10.13;95.92
56671;BME280;42545;50.054;8.306;2023-03-21T12:51:04;99954.06;;;10.17;96.34
56671;BME280;42545;50.054;8.306;2023-03-21T12:53:40;99955.00;;;10.22;96.54
56671;BME280;42545;50.054;8.306;2023-03-21T12:56:12;99952.41;;;10.25;96.67
56671;BME280;42545;50.054;8.306;2023-03-21T12:58:46;99944.47;;;10.24;96.86
56671;BME280;42545;50.054;8.306;2023-03-21T13:01:16;99953.31;;;10.27;96.91
56671;BME280;42545;50.054;8.306;2023-03-21T13:03:49;99950.75;;;10.30;97.18
56671;BME280;42545;50.054;8.306;2023-03-21T13:06:19;99951.59;;;10.28;96.36
56671;BME280;42545;50.054;8.306;2023-03-21T13:08:52;99952.34;;;10.22;95.88
56671;BME280;42545;50.054;8.306;2023-03-21T13:11:24;99952.34;;;10.22;96.77